createdAt,value
2023-03-08T00:00:57.929Z,36.67
2023-03-08T00:03:29.377Z,156.50
2023-03-08T00:06:00.715Z,201.70
2023-03-08T00:08:32.055Z,255.00
2023-03-08T00:11:04.786Z,438.50
2023-03-08T00:13:36.449Z,157.63
2023-03-08T00:16:10.388Z,161.13
2023-03-08T00:18:42.273Z,49.03
2023-03-08T00:21:15.187Z,27.47
2023-03-08T00:23:46.665Z,31.00
2023-03-08T00:26:18.292Z,37.40
2023-03-08T00:28:49.606Z,31.30
2023-03-08T00:31:21.093Z,34.57
2023-03-08T00:33:55.105Z,31.87
2023-03-08T00:36:26.815Z,28.93
2023-03-08T00:38:59.255Z,32.87
2023-03-08T00:41:30.735Z,24.67
2023-03-08T00:44:01.893Z,24.40
2023-03-08T00:46:33.259Z,96.90
2023-03-08T00:49:05.216Z,31.33
2023-03-08T00:51:36.519Z,30.33
2023-03-08T00:54:08.471Z,23.53
2023-03-08T00:56:40.052Z,71.23
2023-03-08T00:59:11.290Z,28.97
2023-03-08T01:01:42.937Z,29.13
2023-03-08T01:04:14.164Z,30.83
2023-03-08T01:06:46.579Z,29.63
2023-03-08T01:09:18.022Z,34.63
2023-03-08T01:11:49.183Z,25.67
2023-03-08T01:14:20.388Z,26.23
2023-03-08T01:16:51.791Z,27.17
2023-03-08T01:19:23.085Z,34.07
2023-03-08T01:21:54.558Z,29.43
2023-03-08T01:24:25.933Z,26.70
2023-03-08T01:26:59.079Z,32.20
2023-03-08T01:29:30.547Z,29.47
2023-03-08T01:32:01.896Z,26.30
2023-03-08T01:34:33.167Z,35.83
2023-03-08T01:37:05.525Z,35.13
2023-03-08T01:39:36.736Z,28.90
2023-03-08T01:42:08.752Z,22.63
2023-03-08T01:44:57.142Z,28.97
2023-03-08T01:47:30.484Z,25.63
2023-03-08T01:50:04.489Z,31.37
2023-03-08T01:52:38.509Z,31.60
2023-03-08T01:55:13.723Z,26.77
2023-03-08T01:57:47.180Z,31.93
2023-03-08T02:00:23.067Z,29.27
2023-03-08T02:02:56.930Z,32.13
2023-03-08T02:05:29.325Z,28.47
2023-03-08T02:08:00.569Z,30.67
2023-03-08T02:10:32.481Z,44.65
2023-03-08T02:13:04.355Z,35.93
2023-03-08T02:15:35.908Z,28.40
2023-03-08T02:18:07.160Z,33.10
2023-03-08T02:20:40.712Z,41.07
2023-03-08T02:23:14.166Z,29.60
2023-03-08T02:25:47.113Z,37.90
2023-03-08T02:28:18.480Z,39.33
2023-03-08T02:30:50.565Z,40.50
2023-03-08T02:33:21.877Z,45.50
2023-03-08T02:35:53.085Z,32.97
2023-03-08T02:38:24.795Z,32.03
2023-03-08T02:40:56.448Z,32.03
2023-03-08T02:43:27.959Z,32.40
2023-03-08T02:45:59.344Z,29.53
2023-03-08T02:48:30.655Z,31.03
2023-03-08T02:51:01.999Z,29.33
2023-03-08T02:53:33.662Z,31.13
2023-03-08T02:56:05.052Z,33.73
2023-03-08T02:58:36.144Z,34.40
2023-03-08T03:01:09.073Z,34.23
2023-03-08T03:03:40.420Z,37.10
2023-03-08T03:06:17.337Z,34.97
2023-03-08T03:08:49.908Z,26.30
2023-03-08T03:11:23.181Z,30.10
2023-03-08T03:13:59.233Z,28.50
2023-03-08T03:16:30.954Z,34.30
2023-03-08T03:19:02.299Z,29.90
2023-03-08T03:21:33.984Z,33.97
2023-03-08T03:24:05.379Z,32.47
2023-03-08T03:26:36.768Z,34.90
2023-03-08T03:29:07.892Z,29.27
2023-03-08T03:31:39.146Z,34.63
2023-03-08T03:34:10.457Z,29.33
2023-03-08T03:36:41.677Z,40.37
2023-03-08T03:39:12.998Z,29.10
2023-03-08T03:41:44.120Z,33.73
2023-03-08T03:44:15.671Z,35.37
2023-03-08T03:46:46.898Z,36.67
2023-03-08T03:49:18.009Z,33.80
2023-03-08T03:51:49.207Z,32.80
2023-03-08T03:54:20.708Z,34.57
2023-03-08T03:56:52.116Z,31.73
2023-03-08T03:59:25.667Z,27.57
2023-03-08T04:01:56.137Z,36.93
2023-03-08T04:04:27.354Z,42.00
2023-03-08T04:06:58.671Z,36.87
2023-03-08T04:09:29.928Z,33.63
2023-03-08T04:12:02.999Z,37.77
2023-03-08T04:14:34.478Z,33.47
2023-03-08T04:17:06.315Z,29.00
2023-03-08T04:19:37.839Z,28.23
2023-03-08T04:22:09.160Z,28.60
2023-03-08T04:24:40.421Z,31.87
2023-03-08T04:27:12.743Z,28.77
2023-03-08T04:29:44.036Z,30.80
2023-03-08T04:32:15.472Z,33.00
2023-03-08T04:34:46.646Z,34.77
2023-03-08T04:37:18.145Z,33.33
2023-03-08T04:39:51.015Z,28.20
2023-03-08T04:42:22.244Z,38.90
2023-03-08T04:44:53.457Z,32.63
2023-03-08T04:47:24.719Z,31.83
2023-03-08T04:49:55.947Z,28.73
2023-03-08T04:52:27.499Z,30.50
2023-03-08T04:54:59.257Z,33.60
2023-03-08T04:57:30.460Z,30.70
2023-03-08T05:00:01.798Z,37.43
2023-03-08T05:02:33.625Z,32.10
2023-03-08T05:05:05.297Z,32.10
2023-03-08T05:07:36.574Z,28.80
2023-03-08T05:10:09.280Z,36.67
2023-03-08T05:12:40.638Z,32.60
2023-03-08T05:15:13.570Z,30.43
2023-03-08T05:17:44.983Z,33.97
2023-03-08T05:20:16.975Z,29.50
2023-03-08T05:22:57.939Z,27.30
2023-03-08T05:25:21.271Z,29.47
2023-03-08T05:27:52.720Z,36.13
2023-03-08T05:30:24.500Z,32.87
2023-03-08T05:32:55.862Z,38.83
2023-03-08T05:35:26.989Z,34.33
2023-03-08T05:37:58.335Z,39.57
2023-03-08T05:40:30.084Z,38.43
2023-03-08T05:43:01.326Z,31.93
2023-03-08T05:45:32.878Z,32.77
2023-03-08T05:48:04.229Z,33.90
2023-03-08T05:50:35.724Z,39.17
2023-03-08T05:53:06.994Z,36.73
2023-03-08T05:55:38.750Z,31.00
2023-03-08T05:58:09.880Z,30.47
2023-03-08T06:00:40.985Z,35.90
2023-03-08T06:05:50.266Z,27.43
2023-03-08T06:08:23.558Z,49.47
2023-03-08T06:10:55.017Z,330.60
2023-03-08T06:13:26.234Z,384.07
2023-03-08T06:15:59.556Z,58.83
2023-03-08T06:18:31.111Z,135.03
2023-03-08T06:21:03.813Z,48.77
2023-03-08T06:23:36.268Z,31.67
2023-03-08T06:26:09.851Z,34.47
2023-03-08T06:28:41.626Z,32.77
2023-03-08T06:31:14.707Z,36.07
2023-03-08T06:36:24.886Z,40.30
2023-03-08T06:38:56.012Z,27.40
2023-03-08T06:41:27.308Z,32.33
2023-03-08T06:43:58.426Z,36.23
2023-03-08T06:46:30.225Z,30.60
2023-03-08T06:49:03.537Z,32.73
2023-03-08T06:51:35.030Z,39.67
2023-03-08T06:54:06.436Z,40.20
2023-03-08T06:56:37.816Z,36.13
2023-03-08T06:59:09.154Z,34.03
2023-03-08T07:01:40.705Z,37.17
2023-03-08T07:04:11.968Z,31.33
2023-03-08T07:06:43.190Z,36.77
2023-03-08T07:09:14.725Z,38.20
2023-03-08T07:11:45.950Z,33.73
2023-03-08T07:14:17.578Z,32.33
2023-03-08T07:16:48.840Z,34.33
2023-03-08T07:19:20.130Z,43.40
2023-03-08T07:21:51.502Z,38.37
2023-03-08T07:24:23.036Z,33.60
2023-03-08T07:26:54.225Z,37.23
2023-03-08T07:29:25.745Z,363.13
2023-03-08T07:31:57.014Z,59.90
2023-03-08T07:34:28.620Z,73.50
2023-03-08T07:39:40.203Z,42.27
2023-03-08T07:42:12.844Z,36.03
2023-03-08T07:44:43.984Z,31.73
2023-03-08T07:47:15.193Z,34.63
2023-03-08T07:49:46.383Z,33.50
2023-03-08T07:52:17.924Z,35.23
2023-03-08T07:54:49.072Z,34.57
2023-03-08T07:57:20.533Z,32.27
2023-03-08T07:59:54.413Z,26.57
2023-03-08T08:02:25.377Z,30.40
2023-03-08T08:04:56.387Z,25.13
2023-03-08T08:07:28.374Z,26.53
2023-03-08T08:09:59.376Z,28.23
2023-03-08T08:12:30.780Z,29.70
2023-03-08T08:15:01.864Z,26.00
2023-03-08T08:17:32.835Z,25.77
2023-03-08T08:20:06.078Z,21.50
2023-03-08T08:22:39.339Z,21.43
2023-03-08T08:25:12.830Z,23.47
2023-03-08T08:27:44.245Z,25.87
2023-03-08T08:30:17.778Z,25.53
2023-03-08T08:32:48.960Z,27.33
2023-03-08T08:35:20.788Z,25.57
2023-03-08T08:37:51.797Z,24.20
2023-03-08T08:40:22.970Z,28.70
2023-03-08T08:42:53.857Z,22.80
2023-03-08T08:45:24.857Z,27.33
2023-03-08T08:47:55.743Z,23.83
2023-03-08T08:50:26.546Z,21.23
2023-03-08T08:52:59.111Z,26.40
2023-03-08T08:55:29.999Z,22.60
2023-03-08T08:58:01.184Z,24.67
2023-03-08T09:00:32.598Z,33.07
2023-03-08T09:03:04.479Z,24.03
2023-03-08T09:05:38.792Z,18.17
2023-03-08T09:08:10.373Z,19.50
2023-03-08T09:10:42.248Z,21.07
2023-03-08T09:13:14.283Z,22.30
2023-03-08T09:15:45.647Z,20.40
2023-03-08T09:18:17.119Z,17.93
2023-03-08T09:20:48.380Z,14.63
2023-03-08T09:23:19.477Z,21.57
2023-03-08T09:26:00.344Z,22.30
2023-03-08T09:28:31.538Z,20.37
2023-03-08T09:31:04.355Z,25.53
2023-03-08T09:33:35.670Z,19.27
2023-03-08T09:36:08.196Z,20.20
2023-03-08T09:38:39.891Z,16.90
2023-03-08T09:41:26.637Z,17.77
2023-03-08T09:44:06.498Z,17.87
2023-03-08T09:46:41.203Z,17.47
2023-03-08T09:49:16.424Z,21.47
2023-03-08T09:51:50.741Z,17.27
2023-03-08T09:54:25.461Z,19.03
2023-03-08T09:56:57.405Z,21.30
2023-03-08T09:59:32.923Z,19.27
2023-03-08T10:04:59.604Z,15.30
2023-03-08T10:10:19.309Z,12.10
2023-03-08T10:12:59.554Z,14.17
2023-03-08T10:15:33.227Z,13.60
2023-03-08T10:18:07.630Z,11.27
2023-03-08T10:20:39.706Z,11.87
2023-03-08T10:23:16.253Z,11.17
2023-03-08T10:25:48.892Z,11.33
2023-03-08T10:28:21.976Z,13.47
2023-03-08T10:30:55.655Z,10.60
2023-03-08T10:33:29.619Z,11.27
2023-03-08T10:36:03.162Z,16.67
2023-03-08T10:38:37.504Z,16.87
2023-03-08T10:41:14.633Z,9.47
2023-03-08T10:44:04.414Z,12.97
2023-03-08T10:46:35.599Z,10.83
2023-03-08T10:49:17.612Z,7.80
2023-03-08T10:51:59.967Z,9.03
2023-03-08T10:54:32.064Z,11.50
2023-03-08T10:57:04.520Z,7.87
2023-03-08T10:59:38.094Z,15.83
2023-03-08T11:02:21.640Z,11.07
2023-03-08T11:04:57.698Z,11.00
2023-03-08T11:07:31.624Z,9.17
2023-03-08T11:10:21.541Z,9.63
2023-03-08T11:12:54.303Z,8.53
2023-03-08T11:15:25.797Z,9.17
2023-03-08T11:17:59.979Z,7.70
2023-03-08T11:20:34.189Z,8.83
2023-03-08T11:23:14.053Z,7.70
2023-03-08T11:25:48.113Z,10.83
2023-03-08T11:28:34.684Z,10.13
2023-03-08T11:31:23.055Z,10.80
2023-03-08T11:34:29.148Z,11.07
2023-03-08T11:39:44.420Z,8.40
2023-03-08T11:42:21.729Z,8.87
2023-03-08T11:45:12.848Z,7.30
2023-03-08T11:48:03.193Z,10.37
2023-03-08T11:50:38.305Z,10.33
2023-03-08T11:53:18.967Z,9.90
2023-03-08T11:56:28.008Z,10.50
2023-03-08T11:59:03.007Z,10.53
2023-03-08T12:01:36.870Z,11.57
2023-03-08T12:04:11.351Z,10.73
2023-03-08T12:06:44.128Z,12.73
2023-03-08T12:09:20.986Z,8.73
2023-03-08T12:11:55.573Z,8.57
2023-03-08T12:14:30.686Z,10.17
2023-03-08T12:17:08.362Z,9.33
2023-03-08T12:19:44.420Z,11.15
2023-03-08T12:22:27.527Z,11.60
2023-03-08T12:25:02.537Z,15.67
2023-03-08T12:27:36.485Z,11.33
2023-03-08T12:30:15.674Z,17.03
2023-03-08T12:32:48.356Z,10.20
2023-03-08T12:35:31.519Z,12.07
2023-03-08T12:38:05.364Z,13.00
2023-03-08T12:40:44.635Z,9.70
2023-03-08T12:46:06.792Z,13.00
2023-03-08T12:48:41.417Z,10.30
2023-03-08T12:51:22.149Z,10.23
2023-03-08T12:54:01.956Z,10.80
2023-03-08T12:56:35.788Z,11.43
2023-03-08T12:59:26.581Z,14.17
2023-03-08T13:02:06.047Z,13.77
2023-03-08T13:04:41.928Z,14.03
2023-03-08T13:07:22.597Z,13.67
2023-03-08T13:10:02.877Z,11.97
2023-03-08T13:12:42.797Z,12.07
2023-03-08T13:15:27.295Z,11.67
2023-03-08T13:18:06.435Z,16.10
2023-03-08T13:20:54.222Z,15.23
2023-03-08T13:23:30.988Z,14.30
2023-03-08T13:26:10.692Z,13.17
2023-03-08T13:28:47.682Z,16.70
2023-03-08T13:31:19.157Z,13.43
2023-03-08T13:33:52.537Z,14.47
2023-03-08T13:36:25.493Z,16.53
2023-03-08T13:39:05.691Z,12.93
2023-03-08T13:41:39.969Z,15.30
2023-03-08T13:44:17.335Z,13.70
2023-03-08T13:46:50.553Z,14.43
2023-03-08T13:49:25.666Z,10.50
2023-03-08T13:51:59.002Z,12.67
2023-03-08T13:54:32.837Z,10.90
2023-03-08T13:57:05.704Z,10.13
2023-03-08T13:59:38.231Z,11.80
2023-03-08T14:02:21.691Z,11.40
2023-03-08T14:04:53.048Z,13.83
2023-03-08T14:07:26.598Z,13.50
2023-03-08T14:09:58.141Z,12.73
2023-03-08T14:12:31.703Z,16.47
2023-03-08T14:15:05.357Z,16.10
2023-03-08T14:17:37.811Z,17.27
2023-03-08T14:20:19.000Z,13.13
2023-03-08T14:22:52.017Z,15.20
2023-03-08T14:25:29.508Z,9.83
2023-03-08T14:28:00.845Z,12.73
2023-03-08T14:30:32.637Z,11.50
2023-03-08T14:33:09.386Z,13.07
2023-03-08T14:35:43.018Z,12.57
2023-03-08T14:38:20.714Z,11.97
2023-03-08T14:40:52.727Z,15.13
2023-03-08T14:43:25.894Z,16.93
2023-03-08T14:45:59.016Z,15.43
2023-03-08T14:48:32.925Z,11.20
2023-03-08T14:51:05.698Z,11.67
2023-03-08T14:53:38.895Z,14.93
2023-03-08T14:56:14.106Z,14.13
2023-03-08T14:58:48.886Z,11.67
2023-03-08T15:01:28.236Z,11.07
2023-03-08T15:04:00.128Z,12.00
2023-03-08T15:06:33.252Z,12.77
2023-03-08T15:09:06.067Z,13.10
2023-03-08T15:11:37.774Z,13.00
2023-03-08T15:14:10.099Z,16.15
2023-03-08T15:16:40.996Z,13.63
2023-03-08T15:19:13.576Z,11.43
2023-03-08T15:21:44.905Z,13.20
2023-03-08T15:24:19.017Z,14.37
2023-03-08T15:26:50.104Z,12.50
2023-03-08T15:29:29.837Z,11.47
2023-03-08T15:32:01.748Z,10.27
2023-03-08T15:34:32.911Z,11.53
2023-03-08T15:37:05.391Z,13.87
2023-03-08T15:39:36.558Z,14.23
2023-03-08T15:42:07.978Z,12.23
2023-03-08T15:44:38.870Z,13.20
2023-03-08T15:47:11.837Z,11.63
2023-03-08T15:49:43.282Z,11.00
2023-03-08T15:52:14.488Z,12.90
2023-03-08T15:54:47.105Z,11.03
2023-03-08T15:57:17.941Z,10.77
2023-03-08T15:59:49.438Z,27.27
2023-03-08T16:02:21.815Z,15.67
2023-03-08T16:04:54.181Z,11.50
2023-03-08T16:07:25.708Z,10.07
2023-03-08T16:09:56.616Z,10.97
2023-03-08T16:12:27.631Z,12.60
2023-03-08T16:14:58.804Z,13.37
2023-03-08T16:17:31.255Z,9.87
2023-03-08T16:20:02.115Z,11.37
2023-03-08T16:22:32.995Z,13.87
2023-03-08T16:25:04.108Z,11.17
2023-03-08T16:27:38.111Z,17.93
2023-03-08T16:30:13.262Z,10.47
2023-03-08T16:32:44.164Z,15.10
2023-03-08T16:35:15.044Z,11.00
2023-03-08T16:37:45.989Z,9.17
2023-03-08T16:40:17.222Z,10.60
2023-03-08T16:42:48.460Z,10.50
2023-03-08T16:45:19.354Z,11.87
2023-03-08T16:47:50.338Z,11.00
2023-03-08T16:50:21.483Z,12.37
2023-03-08T16:52:55.756Z,13.20
2023-03-08T16:55:27.040Z,11.60
2023-03-08T16:57:57.898Z,17.73
2023-03-08T17:00:29.312Z,14.83
2023-03-08T17:03:00.718Z,14.97
2023-03-08T17:05:32.253Z,15.97
2023-03-08T17:08:03.397Z,12.93
2023-03-08T17:10:38.228Z,12.13
2023-03-08T17:13:10.356Z,15.30
2023-03-08T17:15:47.003Z,10.47
2023-03-08T17:18:17.864Z,13.13
2023-03-08T17:20:48.901Z,12.67
2023-03-08T17:23:21.026Z,15.53
2023-03-08T17:25:52.745Z,11.77
2023-03-08T17:28:23.562Z,15.97
2023-03-08T17:30:54.510Z,13.43
2023-03-08T17:33:26.502Z,12.27
2023-03-08T17:35:59.529Z,15.57
2023-03-08T17:38:30.697Z,11.63
2023-03-08T17:41:01.825Z,13.83
2023-03-08T17:43:32.742Z,11.97
2023-03-08T17:46:05.992Z,16.03
2023-03-08T17:48:38.594Z,12.70
2023-03-08T17:51:11.619Z,14.90
2023-03-08T17:53:43.492Z,12.37
2023-03-08T17:56:16.019Z,13.60
2023-03-08T17:58:47.005Z,11.40
2023-03-08T18:01:20.792Z,16.47
2023-03-08T18:03:52.342Z,20.10
2023-03-08T18:06:26.471Z,17.30
2023-03-08T18:08:57.688Z,15.80
2023-03-08T18:11:29.386Z,20.77
2023-03-08T18:14:00.212Z,12.67
2023-03-08T18:16:32.900Z,12.67
2023-03-08T18:19:04.134Z,17.67
2023-03-08T18:21:36.976Z,15.40
2023-03-08T18:24:10.891Z,17.70
2023-03-08T18:26:42.006Z,15.47
2023-03-08T18:29:13.476Z,16.83
2023-03-08T18:31:44.355Z,18.03
2023-03-08T18:34:15.243Z,18.20
2023-03-08T18:36:46.095Z,14.87
2023-03-08T18:39:16.881Z,19.37
2023-03-08T18:41:47.615Z,16.73
2023-03-08T18:44:18.498Z,17.17
2023-03-08T18:46:49.409Z,17.47
2023-03-08T18:49:20.173Z,16.17
2023-03-08T18:51:51.119Z,16.13
2023-03-08T18:54:22.529Z,20.00
2023-03-08T18:56:53.935Z,14.93
2023-03-08T18:59:25.214Z,17.60
2023-03-08T19:01:56.088Z,18.63
2023-03-08T19:04:27.676Z,16.00
2023-03-08T19:06:58.456Z,14.63
2023-03-08T19:09:29.178Z,14.77
2023-03-08T19:12:00.408Z,15.07
2023-03-08T19:14:31.538Z,18.73
2023-03-08T19:17:02.355Z,17.00
2023-03-08T19:19:34.105Z,17.27
2023-03-08T19:22:06.567Z,17.03
2023-03-08T19:24:37.439Z,16.27
2023-03-08T19:27:08.354Z,19.73
2023-03-08T19:29:39.566Z,17.63
2023-03-08T19:32:13.954Z,26.13
2023-03-08T19:34:45.732Z,15.70
2023-03-08T19:37:17.049Z,18.13
2023-03-08T19:39:48.018Z,16.77
2023-03-08T19:42:19.304Z,17.23
2023-03-08T19:44:51.057Z,15.37
2023-03-08T19:47:22.238Z,16.63
2023-03-08T19:49:54.367Z,16.10
2023-03-08T19:52:25.476Z,16.47
2023-03-08T19:54:56.682Z,15.87
2023-03-08T19:57:27.718Z,18.60
2023-03-08T19:59:59.535Z,22.00
2023-03-08T20:02:30.874Z,25.37
2023-03-08T20:05:02.764Z,17.67
2023-03-08T20:07:34.818Z,19.87
2023-03-08T20:10:15.720Z,19.77
2023-03-08T20:12:39.500Z,17.73
2023-03-08T20:15:12.681Z,18.07
2023-03-08T20:17:43.588Z,19.40
2023-03-08T20:20:15.480Z,17.57
2023-03-08T20:22:46.566Z,19.43
2023-03-08T20:25:18.070Z,20.00
2023-03-08T20:27:49.182Z,19.93
2023-03-08T20:30:21.752Z,19.23
2023-03-08T20:32:53.456Z,17.60
2023-03-08T20:35:24.564Z,18.27
2023-03-08T20:37:55.540Z,17.23
2023-03-08T20:40:26.387Z,20.07
2023-03-08T20:42:58.137Z,22.17
2023-03-08T20:45:29.984Z,21.90
2023-03-08T20:48:00.883Z,15.83
2023-03-08T20:50:32.186Z,20.73
2023-03-08T20:55:42.145Z,18.23
2023-03-08T20:58:12.881Z,17.00
2023-03-08T21:00:43.671Z,19.10
2023-03-08T21:03:14.757Z,17.73
2023-03-08T21:05:46.159Z,19.60
2023-03-08T21:08:17.295Z,16.70
2023-03-08T21:10:48.139Z,19.63
2023-03-08T21:13:18.848Z,16.77
2023-03-08T21:15:49.732Z,17.77
2023-03-08T21:18:20.634Z,16.80
2023-03-08T21:20:53.866Z,19.03
2023-03-08T21:23:24.693Z,17.17
2023-03-08T21:25:57.602Z,16.77
2023-03-08T21:28:28.585Z,18.37
2023-03-08T21:30:59.371Z,18.83
2023-03-08T21:33:30.176Z,16.40
2023-03-08T21:36:01.684Z,13.53
2023-03-08T21:38:32.533Z,16.07
2023-03-08T21:41:03.452Z,14.40
2023-03-08T21:43:34.377Z,17.87
2023-03-08T21:46:07.932Z,16.27
2023-03-08T21:48:38.665Z,16.10
2023-03-08T21:51:10.946Z,15.43
2023-03-08T21:53:42.265Z,16.60
2023-03-08T21:56:16.084Z,15.80
2023-03-08T21:58:47.371Z,15.27
2023-03-08T22:01:23.415Z,13.83
2023-03-08T22:03:55.225Z,15.23
2023-03-08T22:06:27.004Z,16.27
2023-03-08T22:09:16.531Z,15.30
2023-03-08T22:11:47.451Z,14.37
2023-03-08T22:14:18.210Z,13.87
2023-03-08T22:16:49.073Z,13.57
2023-03-08T22:19:19.876Z,13.77
2023-03-08T22:21:50.768Z,18.97
2023-03-08T22:24:21.573Z,15.07
2023-03-08T22:26:52.533Z,13.30
2023-03-08T22:29:23.350Z,11.77
2023-03-08T22:31:54.208Z,14.60
2023-03-08T22:34:25.243Z,13.83
2023-03-08T22:36:55.990Z,13.27
2023-03-08T22:39:28.088Z,13.87
2023-03-08T22:41:59.001Z,18.37
2023-03-08T22:44:29.987Z,13.80
2023-03-08T22:47:00.971Z,17.03
2023-03-08T22:49:31.716Z,15.07
2023-03-08T22:52:02.597Z,16.43
2023-03-08T22:54:33.547Z,19.83
2023-03-08T22:57:04.775Z,12.63
2023-03-08T22:59:35.585Z,20.63
2023-03-08T23:02:06.796Z,15.27
2023-03-08T23:04:37.726Z,19.57
2023-03-08T23:07:08.930Z,16.80
2023-03-08T23:09:39.955Z,16.07
2023-03-08T23:12:12.019Z,18.90
2023-03-08T23:14:44.993Z,16.83
2023-03-08T23:17:15.476Z,17.07
2023-03-08T23:19:46.252Z,16.90
2023-03-08T23:22:17.186Z,19.80
2023-03-08T23:24:48.824Z,18.23
2023-03-08T23:27:19.782Z,17.53
2023-03-08T23:29:52.079Z,22.63
2023-03-08T23:32:23.106Z,16.70
2023-03-08T23:34:53.887Z,17.23
2023-03-08T23:37:24.756Z,24.73
2023-03-08T23:39:55.625Z,21.00
2023-03-08T23:42:26.519Z,21.45
2023-03-08T23:44:57.273Z,21.80
2023-03-08T23:47:28.208Z,23.97
2023-03-08T23:49:59.255Z,27.30
2023-03-08T23:52:30.185Z,17.83
2023-03-08T23:55:00.982Z,21.43
2023-03-08T23:57:31.994Z,20.50
